MST,Max TemperatureF,Mean TemperatureF,Min TemperatureF,Max Dew PointF,MeanDew PointF,Min DewpointF,Max Humidity, Mean Humidity, Min Humidity, Max Sea Level PressureIn, Mean Sea Level PressureIn, Min Sea Level PressureIn, Max VisibilityMiles, Mean VisibilityMiles, Min VisibilityMiles, Max Wind SpeedMPH, Mean Wind SpeedMPH, Max Gust SpeedMPH,PrecipitationIn, CloudCover, Events, WindDirDegrees
2012-12-1,55,48,42,41,38,34,81,68,51,30.10,30.04,30.01,15,11,10,15,4,,0.00,4,,103
2012-12-2,55,46,37,41,35,30,87,68,44,30.05,29.95,29.79,15,11,8,29,10,39,0.37,4,,158
2012-12-3,44,37,30,37,30,27,93,76,53,30.32,30.20,30.06,15,12,10,13,5,,0.00,1,,34
2012-12-4,46,37,28,37,31,25,93,78,57,30.39,30.30,30.22,15,11,10,9,3,,0.00,4,,134
2012-12-5,48,42,37,39,37,34,100,82,66,30.22,30.14,30.10,15,10,1,13,2,,0.00,6,,125
2012-12-6,48,42,37,41,38,36,100,89,71,30.10,30.06,29.97,15,7,0,9,1,,0.00,6,Fog,158
2012-12-7,44,40,32,34,27,19,87,61,39,30.22,30.09,30.04,15,15,15,14,7,,0.00,3,,306
2012-12-8,39,34,28,28,24,21,80,70,52,30.06,29.99,29.90,15,12,4,17,10,28,0.00,7,Snow,310
2012-12-9,30,27,24,21,18,16,86,71,60,30.34,30.27,30.18,15,13,2,17,10,,0.00,6,Snow,318
2012-12-10,30,27,23,25,22,18,93,85,74,30.26,30.20,30.13,15,9,1,5,2,,0.00,7,Snow,-1
2012-12-11,44,36,28,28,27,25,100,73,49,30.10,30.00,29.87,15,15,10,9,2,,0.00,5,,117
2012-12-12,48,42,37,27,24,21,56,47,40,29.91,29.81,29.76,15,15,15,17,10,24,0.00,6,,124
2012-12-13,48,44,39,25,22,19,49,42,34,29.87,29.82,29.78,15,11,10,23,15,,0.00,3,,143
2012-12-14,42,38,33,36,29,19,100,75,45,29.95,29.70,29.58,15,9,4,8,5,,0.04,6,,289
2012-12-15,37,34,32,36,31,30,100,88,81,29.86,29.83,29.78,12,8,2,18,5,23,0.02,7,Snow,123
2012-12-16,37,34,32,30,27,25,87,74,65,29.97,29.93,29.85,15,11,3,17,5,18,0.00,6,,168
2012-12-17,46,40,33,32,28,25,87,69,56,29.95,29.86,29.76,15,10,2,15,6,21,0.22,7,Rain-Snow,233
2012-12-18,33,30,26,32,25,18,100,81,64,29.85,29.79,29.70,10,8,1,20,10,22,0.02,7,Snow,314
2012-12-19,26,20,14,19,14,9,86,73,59,30.41,30.06,29.76,15,12,10,23,12,28,0.00,1,,323
2012-12-20,26,19,12,19,11,7,93,77,59,30.43,30.35,30.26,15,12,10,14,7,,0.00,1,,139
2012-12-21,35,24,14,21,14,7,100,70,48,30.26,30.17,30.07,15,12,10,12,2,17,0.00,0,,76
2012-12-22,39,30,21,21,17,12,80,57,45,30.10,30.03,29.92,15,12,10,17,7,,0.00,3,,132
2012-12-23,42,36,30,28,24,18,86,63,36,30.12,30.00,29.89,15,12,10,13,5,17,0.00,5,,335
2012-12-24,39,32,24,34,28,18,100,85,65,30.08,29.89,29.79,10,8,0,23,8,37,0.01,6,Rain-Snow,140
2012-12-25,28,22,17,23,19,16,100,87,69,30.22,30.10,29.94,15,11,10,6,2,,0.00,4,,88
2012-12-26,30,26,23,28,24,18,93,89,74,29.93,29.78,29.68,10,5,1,17,4,16,0.03,7,Snow,158
2012-12-27,30,28,26,28,24,19,93,84,69,30.06,29.86,29.74,15,8,2,17,11,,0.00,7,Snow,278
2012-12-28,28,18,8,25,19,3,100,91,79,30.24,30.17,30.07,15,5,0,8,1,,0.00,5,Fog-Snow,184
2012-12-29,24,16,8,19,12,1,100,92,73,30.24,30.14,30.00,15,9,1,6,1,,0.00,3,,223
2012-12-30,39,28,17,21,18,16,100,82,45,30.03,30.00,29.97,15,9,5,12,5,,0.00,6,Snow,326
2012-12-31,24,20,15,21,16,12,100,88,79,30.27,30.13,30.02,15,7,2,15,6,,0.00,5,Snow,318